Observations for Trim Market St
| Time | AQI | Temp °C | Hum % | Pres Pa | CO μg/m³ | H₂S μg/m³ | NO μg/m³ | NO₂ μg/m³ | O₃ μg/m³ | SO₂ μg/m³ | PM1 μg/m³ | PM2.5 μg/m³ | PM10 μg/m³ |
|---|---|---|---|---|---|---|---|---|---|---|---|---|---|
| Saturday 15 August 2026 | |||||||||||||
| 09:38 | 2 | 27.6 | 37 | 65,700 | 0.24 | 0 | 1.16 | 6.79 | 0 | 0 | 0 | 3.53 | 3.88 |
| 09:36 | 2 | 27.6 | 38 | 65,709 | 0.18 | 0 | 1.28 | 2.05 | 3.6 | 0 | 0.71 | 4.04 | 4.45 |
| 09:35 | 2 | 27.5 | 38 | 65,680 | 0.17 | 0 | 1.29 | 1.23 | 21.52 | 0 | 0 | 3.5 | 3.85 |
| 09:34 | 2 | 27.5 | 38 | 65,643 | 0.15 | 0 | 1.37 | 0 | 21.16 | 0 | 0.71 | 3.49 | 5.08 |
| 09:32 | 2 | 27.4 | 39 | 65,580 | 0.21 | 0 | 1.16 | 0 | 17.47 | 0 | 1.43 | 4.52 | 4.98 |
| 09:30 | 2 | 27.2 | 40 | 65,544 | 0.42 | 0 | 1.16 | 0 | 0 | 0 | 0 | 2.89 | 4.3 |
| 09:26 | 2 | 27 | 42 | 65,319 | 0.65 | 0 | 1.64 | 0 | 0 | 0 | 0 | 2.29 | 2.52 |
| 09:25 | 2 | 27 | 42 | 65,205 | 1 | 0 | 1.65 | 10.45 | 0 | 0 | 0 | 2.27 | 2.5 |
| 09:23 | 2 | 26.8 | 43 | 64,999 | 2.15 | 0 | 1.63 | 100.95 | 0 | 5.79 | 15.68 | 20.61 | 35.93 |
| 09:15 | 2 | 24.9 | 49 | 62,527 | 0.47 | 0 | 2.14 | 5.11 | 29.11 | 0 | 0 | 2.48 | 2.73 |
| 09:14 | 2 | 24.6 | 50 | 61,962 | 0.46 | 0 | 2.46 | 8.7 | 34.33 | 0 | 0 | 1.93 | 2.13 |
| 09:13 | 2 | 24.3 | 51 | 61,415 | 0.43 | 0 | 2.78 | 0.87 | 0 | 0 | 0 | 1.88 | 2.07 |
| 09:12 | 2 | 24 | 52 | 60,414 | 0.39 | 0 | 2.66 | 7.87 | 13.11 | 0 | 0 | 1.86 | 2.39 |
| 09:11 | 2 | 23.7 | 53 | 59,387 | 0.38 | 0 | 2.67 | 5.75 | 27.27 | 0 | 0 | 2.33 | 2.42 |
| 09:10 | 2 | 23.4 | 54 | 58,546 | 0.46 | 0 | 2.62 | 4.2 | 0 | 0 | 2.14 | 4.33 | 5.36 |
| 09:09 | 2 | 23.1 | 55 | 57,158 | 0.3 | 0 | 2.55 | 2.57 | 19.28 | 0 | 0 | 2.26 | 2.5 |
| 09:08 | 2 | 22.8 | 56 | 56,634 | 0.23 | 0 | 2.73 | 3.91 | 41.02 | 0 | 0 | 1.71 | 1.82 |
| 09:07 | 2 | 22.4 | 57 | 56,967 | 0.24 | 0 | 2.95 | 0 | 11.33 | 0 | 0 | 1.67 | 1.88 |
| 09:06 | 2 | 22 | 57 | 57,248 | 0.19 | 0 | 2.97 | 0 | 26.95 | 0 | 0 | 2.14 | 2.61 |
| 09:05 | 2 | 21.7 | 58 | 57,760 | 0.22 | 0 | 2.96 | 4.35 | 33.97 | 0 | 0 | 1.63 | 1.92 |